sensor_id;sensor_type;location;lat;lon;timestamp;P1;durP1;ratioP1;P2;durP2;ratioP2
51907;SDS011;39320;53.214;6.556;2023-06-14T00:00:58;3.05;;;1.30;;
51907;SDS011;39320;53.214;6.556;2023-06-14T00:03:24;4.13;;;1.23;;
51907;SDS011;39320;53.214;6.556;2023-06-14T00:05:51;2.80;;;1.15;;
51907;SDS011;39320;53.214;6.556;2023-06-14T00:08:16;2.97;;;1.30;;
51907;SDS011;39320;53.214;6.556;2023-06-14T00:10:44;4.80;;;1.50;;
51907;SDS011;39320;53.214;6.556;2023-06-14T00:13:10;4.35;;;1.60;;
51907;SDS011;39320;53.214;6.556;2023-06-14T00:15:36;3.10;;;1.20;;
51907;SDS011;39320;53.214;6.556;2023-06-14T00:18:02;3.08;;;1.45;;
51907;SDS011;39320;53.214;6.556;2023-06-14T00:20:30;2.67;;;1.13;;
51907;SDS011;39320;53.214;6.556;2023-06-14T00:22:58;4.00;;;1.10;;
51907;SDS011;39320;53.214;6.556;2023-06-14T00:25:24;3.15;;;1.33;;
51907;SDS011;39320;53.214;6.556;2023-06-14T00:27:51;1.95;;;1.17;;
51907;SDS011;39320;53.214;6.556;2023-06-14T00:30:17;1.92;;;1.25;;
51907;SDS011;39320;53.214;6.556;2023-06-14T00:32:44;3.40;;;1.10;;
51907;SDS011;39320;53.214;6.556;2023-06-14T00:35:10;3.30;;;1.48;;
51907;SDS011;39320;53.214;6.556;2023-06-14T00:37:36;2.30;;;0.95;;
51907;SDS011;39320;53.214;6.556;2023-06-14T00:40:03;4.57;;;1.35;;
51907;SDS011;39320;53.214;6.556;2023-06-14T00:42:30;3.33;;;1.40;;
51907;SDS011;39320;53.214;6.556;2023-06-14T00:44:55;2.30;;;1.10;;
51907;SDS011;39320;53.214;6.556;2023-06-14T00:47:22;3.42;;;1.00;;
51907;SDS011;39320;53.214;6.556;2023-06-14T00:49:48;3.08;;;0.95;;
51907;SDS011;39320;53.214;6.556;2023-06-14T00:52:18;3.03;;;1.00;;
51907;SDS011;39320;53.214;6.556;2023-06-14T00:54:44;1.23;;;0.95;;
51907;SDS011;39320;53.214;6.556;2023-06-14T00:57:10;2.67;;;1.20;;
51907;SDS011;39320;53.214;6.556;2023-06-14T00:59:55;2.55;;;0.90;;
51907;SDS011;39320;53.214;6.556;2023-06-14T01:02:21;2.85;;;0.80;;
51907;SDS011;39320;53.214;6.556;2023-06-14T01:04:48;1.80;;;0.93;;
51907;SDS011;39320;53.214;6.556;2023-06-14T01:10:26;1.60;;;1.08;;
51907;SDS011;39320;53.214;6.556;2023-06-14T01:13:23;1.63;;;1.00;;
51907;SDS011;39320;53.214;6.556;2023-06-14T01:15:58;2.15;;;1.10;;
51907;SDS011;39320;53.214;6.556;2023-06-14T01:18:24;2.35;;;1.00;;
51907;SDS011;39320;53.214;6.556;2023-06-14T01:20:51;2.65;;;1.17;;
51907;SDS011;39320;53.214;6.556;2023-06-14T01:23:20;3.63;;;1.00;;
51907;SDS011;39320;53.214;6.556;2023-06-14T01:25:47;1.67;;;0.82;;
51907;SDS011;39320;53.214;6.556;2023-06-14T01:28:18;2.25;;;1.02;;
51907;SDS011;39320;53.214;6.556;2023-06-14T01:30:47;2.83;;;1.52;;
51907;SDS011;39320;53.214;6.556;2023-06-14T01:33:24;1.85;;;1.08;;
51907;SDS011;39320;53.214;6.556;2023-06-14T01:38:20;3.35;;;1.23;;
51907;SDS011;39320;53.214;6.556;2023-06-14T01:40:48;2.60;;;0.95;;
51907;SDS011;39320;53.214;6.556;2023-06-14T01:43:16;2.63;;;1.08;;
51907;SDS011;39320;53.214;6.556;2023-06-14T01:45:42;2.13;;;1.02;;
51907;SDS011;39320;53.214;6.556;2023-06-14T01:48:11;2.13;;;1.20;;
51907;SDS011;39320;53.214;6.556;2023-06-14T01:50:37;2.80;;;1.13;;
51907;SDS011;39320;53.214;6.556;2023-06-14T01:53:03;2.47;;;1.00;;
51907;SDS011;39320;53.214;6.556;2023-06-14T01:55:32;2.97;;;1.00;;
51907;SDS011;39320;53.214;6.556;2023-06-14T01:58:02;3.00;;;1.08;;
51907;SDS011;39320;53.214;6.556;2023-06-14T02:00:29;3.45;;;1.40;;
51907;SDS011;39320;53.214;6.556;2023-06-14T02:02:55;3.03;;;1.30;;
51907;SDS011;39320;53.214;6.556;2023-06-14T02:05:20;1.75;;;0.90;;
51907;SDS011;39320;53.214;6.556;2023-06-14T02:07:46;2.65;;;1.20;;
51907;SDS011;39320;53.214;6.556;2023-06-14T02:10:12;2.28;;;1.25;;
51907;SDS011;39320;53.214;6.556;2023-06-14T02:12:39;1.55;;;0.90;;
51907;SDS011;39320;53.214;6.556;2023-06-14T02:15:05;2.55;;;1.10;;
51907;SDS011;39320;53.214;6.556;2023-06-14T02:17:32;1.90;;;1.20;;
51907;SDS011;39320;53.214;6.556;2023-06-14T02:19:58;4.13;;;1.40;;
51907;SDS011;39320;53.214;6.556;2023-06-14T02:22:23;2.45;;;1.02;;
51907;SDS011;39320;53.214;6.556;2023-06-14T02:24:49;2.58;;;1.40;;
51907;SDS011;39320;53.214;6.556;2023-06-14T02:27:15;2.33;;;1.70;;
51907;SDS011;39320;53.214;6.556;2023-06-14T02:29:41;3.55;;;1.30;;
51907;SDS011;39320;53.214;6.556;2023-06-14T02:32:07;4.85;;;1.27;;
51907;SDS011;39320;53.214;6.556;2023-06-14T02:34:33;4.30;;;1.27;;
51907;SDS011;39320;53.214;6.556;2023-06-14T02:37:00;2.58;;;1.40;;
51907;SDS011;39320;53.214;6.556;2023-06-14T02:39:27;4.57;;;1.23;;
51907;SDS011;39320;53.214;6.556;2023-06-14T02:41:54;2.15;;;1.17;;
51907;SDS011;39320;53.214;6.556;2023-06-14T02:44:23;2.40;;;1.30;;
51907;SDS011;39320;53.214;6.556;2023-06-14T02:46:51;3.45;;;1.30;;
51907;SDS011;39320;53.214;6.556;2023-06-14T02:49:17;2.05;;;1.25;;
51907;SDS011;39320;53.214;6.556;2023-06-14T02:51:42;2.60;;;1.33;;
51907;SDS011;39320;53.214;6.556;2023-06-14T02:54:08;2.13;;;1.48;;
51907;SDS011;39320;53.214;6.556;2023-06-14T02:56:34;2.22;;;1.40;;
51907;SDS011;39320;53.214;6.556;2023-06-14T02:59:01;1.75;;;1.20;;
51907;SDS011;39320;53.214;6.556;2023-06-14T03:01:27;1.42;;;1.08;;
51907;SDS011;39320;53.214;6.556;2023-06-14T03:03:59;3.83;;;1.38;;
51907;SDS011;39320;53.214;6.556;2023-06-14T03:06:25;3.28;;;1.35;;
51907;SDS011;39320;53.214;6.556;2023-06-14T03:08:51;4.68;;;1.55;;
51907;SDS011;39320;53.214;6.556;2023-06-14T03:11:20;3.67;;;1.60;;
51907;SDS011;39320;53.214;6.556;2023-06-14T03:13:45;2.38;;;1.50;;
51907;SDS011;39320;53.214;6.556;2023-06-14T03:16:12;2.35;;;1.38;;
51907;SDS011;39320;53.214;6.556;2023-06-14T03:18:37;2.55;;;1.20;;
51907;SDS011;39320;53.214;6.556;2023-06-14T03:21:03;5.63;;;1.80;;
51907;SDS011;39320;53.214;6.556;2023-06-14T03:23:30;3.08;;;1.60;;
51907;SDS011;39320;53.214;6.556;2023-06-14T03:25:56;4.82;;;1.30;;
51907;SDS011;39320;53.214;6.556;2023-06-14T03:28:22;3.50;;;1.42;;
51907;SDS011;39320;53.214;6.556;2023-06-14T03:30:48;3.42;;;1.60;;
51907;SDS011;39320;53.214;6.556;2023-06-14T03:33:13;5.00;;;1.63;;
51907;SDS011;39320;53.214;6.556;2023-06-14T03:35:40;3.17;;;1.63;;
51907;SDS011;39320;53.214;6.556;2023-06-14T03:38:06;3.10;;;1.38;;
51907;SDS011;39320;53.214;6.556;2023-06-14T03:40:32;2.97;;;1.30;;
51907;SDS011;39320;53.214;6.556;2023-06-14T03:42:57;2.53;;;1.65;;
51907;SDS011;39320;53.214;6.556;2023-06-14T03:45:23;1.90;;;1.30;;
51907;SDS011;39320;53.214;6.556;2023-06-14T03:47:49;3.55;;;1.52;;
51907;SDS011;39320;53.214;6.556;2023-06-14T03:50:16;4.93;;;1.42;;
51907;SDS011;39320;53.214;6.556;2023-06-14T03:52:43;3.05;;;1.70;;
51907;SDS011;39320;53.214;6.556;2023-06-14T03:55:09;6.32;;;1.63;;
51907;SDS011;39320;53.214;6.556;2023-06-14T03:57:38;3.85;;;1.60;;
51907;SDS011;39320;53.214;6.556;2023-06-14T04:00:04;3.10;;;1.52;;
51907;SDS011;39320;53.214;6.556;2023-06-14T04:02:31;3.13;;;1.42;;
51907;SDS011;39320;53.214;6.556;2023-06-14T04:04:56;2.78;;;1.60;;
51907;SDS011;39320;53.214;6.556;2023-06-14T04:07:23;2.90;;;1.60;;
51907;SDS011;39320;53.214;6.556;2023-06-14T04:09:51;3.00;;;1.52;;
51907;SDS011;39320;53.214;6.556;2023-06-14T04:12:16;3.78;;;1.67;;
51907;SDS011;39320;53.214;6.556;2023-06-14T04:14:42;3.60;;;1.35;;
51907;SDS011;39320;53.214;6.556;2023-06-14T04:17:08;2.85;;;1.58;;
51907;SDS011;39320;53.214;6.556;2023-06-14T04:19:34;5.05;;;2.15;;
51907;SDS011;39320;53.214;6.556;2023-06-14T04:21:59;3.58;;;1.73;;
51907;SDS011;39320;53.214;6.556;2023-06-14T04:24:27;5.18;;;2.10;;
51907;SDS011;39320;53.214;6.556;2023-06-14T04:26:57;4.05;;;1.92;;
51907;SDS011;39320;53.214;6.556;2023-06-14T04:29:24;4.55;;;2.00;;
51907;SDS011;39320;53.214;6.556;2023-06-14T04:31:51;5.78;;;2.28;;
51907;SDS011;39320;53.214;6.556;2023-06-14T04:34:19;4.13;;;1.55;;
51907;SDS011;39320;53.214;6.556;2023-06-14T04:36:46;4.35;;;1.75;;
51907;SDS011;39320;53.214;6.556;2023-06-14T04:39:18;4.40;;;1.80;;
51907;SDS011;39320;53.214;6.556;2023-06-14T04:41:45;3.65;;;1.60;;
51907;SDS011;39320;53.214;6.556;2023-06-14T04:44:11;3.88;;;1.63;;
51907;SDS011;39320;53.214;6.556;2023-06-14T04:46:38;3.65;;;2.15;;
51907;SDS011;39320;53.214;6.556;2023-06-14T04:49:11;3.22;;;1.80;;
51907;SDS011;39320;53.214;6.556;2023-06-14T04:51:39;3.17;;;1.63;;
51907;SDS011;39320;53.214;6.556;2023-06-14T04:54:06;3.90;;;1.85;;
51907;SDS011;39320;53.214;6.556;2023-06-14T04:56:35;4.75;;;1.88;;
51907;SDS011;39320;53.214;6.556;2023-06-14T04:59:02;3.17;;;1.95;;
51907;SDS011;39320;53.214;6.556;2023-06-14T05:01:31;2.58;;;1.95;;
51907;SDS011;39320;53.214;6.556;2023-06-14T05:03:58;5.30;;;1.98;;
51907;SDS011;39320;53.214;6.556;2023-06-14T05:06:24;4.43;;;2.00;;
51907;SDS011;39320;53.214;6.556;2023-06-14T05:08:52;3.03;;;2.22;;
51907;SDS011;39320;53.214;6.556;2023-06-14T05:11:19;4.15;;;2.17;;
51907;SDS011;39320;53.214;6.556;2023-06-14T05:13:45;3.47;;;2.17;;
51907;SDS011;39320;53.214;6.556;2023-06-14T05:16:11;3.55;;;2.47;;
51907;SDS011;39320;53.214;6.556;2023-06-14T05:18:38;4.07;;;2.15;;
51907;SDS011;39320;53.214;6.556;2023-06-14T05:21:05;6.97;;;2.85;;
51907;SDS011;39320;53.214;6.556;2023-06-14T05:23:31;3.08;;;2.10;;
51907;SDS011;39320;53.214;6.556;2023-06-14T05:25:57;4.85;;;2.75;;
51907;SDS011;39320;53.214;6.556;2023-06-14T05:28:23;4.03;;;2.72;;
51907;SDS011;39320;53.214;6.556;2023-06-14T05:30:48;4.07;;;2.72;;
51907;SDS011;39320;53.214;6.556;2023-06-14T05:33:15;4.93;;;2.97;;
51907;SDS011;39320;53.214;6.556;2023-06-14T05:35:40;4.72;;;3.03;;
51907;SDS011;39320;53.214;6.556;2023-06-14T05:38:06;4.13;;;2.45;;
51907;SDS011;39320;53.214;6.556;2023-06-14T05:40:32;3.50;;;2.58;;
51907;SDS011;39320;53.214;6.556;2023-06-14T05:42:58;3.53;;;2.70;;
51907;SDS011;39320;53.214;6.556;2023-06-14T05:45:25;4.20;;;3.33;;
51907;SDS011;39320;53.214;6.556;2023-06-14T05:47:53;3.30;;;2.22;;
51907;SDS011;39320;53.214;6.556;2023-06-14T05:50:20;5.40;;;2.92;;
51907;SDS011;39320;53.214;6.556;2023-06-14T05:52:46;5.10;;;2.28;;
51907;SDS011;39320;53.214;6.556;2023-06-14T05:55:11;5.05;;;2.83;;
51907;SDS011;39320;53.214;6.556;2023-06-14T05:57:37;4.97;;;3.13;;
51907;SDS011;39320;53.214;6.556;2023-06-14T06:00:04;6.95;;;3.10;;
51907;SDS011;39320;53.214;6.556;2023-06-14T06:02:39;4.40;;;2.97;;
51907;SDS011;39320;53.214;6.556;2023-06-14T06:05:06;6.35;;;3.35;;
51907;SDS011;39320;53.214;6.556;2023-06-14T06:07:31;6.80;;;3.20;;
51907;SDS011;39320;53.214;6.556;2023-06-14T06:09:57;6.22;;;3.25;;
51907;SDS011;39320;53.214;6.556;2023-06-14T06:12:23;5.18;;;3.10;;
51907;SDS011;39320;53.214;6.556;2023-06-14T06:14:49;4.97;;;2.55;;
51907;SDS011;39320;53.214;6.556;2023-06-14T06:17:14;6.45;;;3.00;;
51907;SDS011;39320;53.214;6.556;2023-06-14T06:19:40;3.10;;;2.15;;
51907;SDS011;39320;53.214;6.556;2023-06-14T06:22:06;5.22;;;2.60;;
51907;SDS011;39320;53.214;6.556;2023-06-14T06:24:33;8.15;;;3.13;;
51907;SDS011;39320;53.214;6.556;2023-06-14T06:26:58;7.00;;;2.95;;
51907;SDS011;39320;53.214;6.556;2023-06-14T06:29:25;4.72;;;3.30;;
51907;SDS011;39320;53.214;6.556;2023-06-14T06:31:51;6.07;;;2.70;;
51907;SDS011;39320;53.214;6.556;2023-06-14T06:34:17;5.85;;;2.90;;
51907;SDS011;39320;53.214;6.556;2023-06-14T06:36:42;7.35;;;3.22;;
51907;SDS011;39320;53.214;6.556;2023-06-14T06:39:08;3.67;;;2.70;;
51907;SDS011;39320;53.214;6.556;2023-06-14T06:41:38;3.85;;;2.53;;
51907;SDS011;39320;53.214;6.556;2023-06-14T06:44:05;6.28;;;3.20;;
51907;SDS011;39320;53.214;6.556;2023-06-14T06:46:31;9.32;;;3.10;;
51907;SDS011;39320;53.214;6.556;2023-06-14T06:48:58;7.03;;;3.20;;
51907;SDS011;39320;53.214;6.556;2023-06-14T06:51:24;7.65;;;2.88;;
51907;SDS011;39320;53.214;6.556;2023-06-14T06:53:53;6.10;;;2.67;;
51907;SDS011;39320;53.214;6.556;2023-06-14T06:56:20;5.70;;;2.38;;
51907;SDS011;39320;53.214;6.556;2023-06-14T06:58:49;5.20;;;2.17;;
51907;SDS011;39320;53.214;6.556;2023-06-14T07:01:15;3.45;;;2.17;;
51907;SDS011;39320;53.214;6.556;2023-06-14T07:03:42;5.38;;;2.50;;
51907;SDS011;39320;53.214;6.556;2023-06-14T07:06:08;5.22;;;2.60;;
51907;SDS011;39320;53.214;6.556;2023-06-14T07:08:33;4.13;;;2.65;;
51907;SDS011;39320;53.214;6.556;2023-06-14T07:10:59;8.25;;;2.67;;
51907;SDS011;39320;53.214;6.556;2023-06-14T07:13:25;4.47;;;2.08;;
51907;SDS011;39320;53.214;6.556;2023-06-14T07:15:53;4.05;;;2.67;;
51907;SDS011;39320;53.214;6.556;2023-06-14T07:18:22;3.70;;;2.08;;
51907;SDS011;39320;53.214;6.556;2023-06-14T07:20:48;3.97;;;2.22;;
51907;SDS011;39320;53.214;6.556;2023-06-14T07:23:13;4.95;;;2.25;;
51907;SDS011;39320;53.214;6.556;2023-06-14T07:25:39;3.75;;;2.30;;
51907;SDS011;39320;53.214;6.556;2023-06-14T07:28:05;9.00;;;2.92;;
51907;SDS011;39320;53.214;6.556;2023-06-14T07:30:30;3.00;;;1.98;;
51907;SDS011;39320;53.214;6.556;2023-06-14T07:32:56;3.95;;;1.67;;
51907;SDS011;39320;53.214;6.556;2023-06-14T07:35:22;5.50;;;1.80;;
51907;SDS011;39320;53.214;6.556;2023-06-14T07:37:47;4.25;;;2.10;;
51907;SDS011;39320;53.214;6.556;2023-06-14T07:40:15;3.45;;;1.75;;
51907;SDS011;39320;53.214;6.556;2023-06-14T07:42:41;3.78;;;2.10;;
51907;SDS011;39320;53.214;6.556;2023-06-14T07:45:07;2.50;;;1.88;;
51907;SDS011;39320;53.214;6.556;2023-06-14T07:47:33;3.08;;;1.85;;
51907;SDS011;39320;53.214;6.556;2023-06-14T07:49:59;2.38;;;1.70;;
51907;SDS011;39320;53.214;6.556;2023-06-14T07:52:25;2.75;;;1.92;;
51907;SDS011;39320;53.214;6.556;2023-06-14T07:54:50;4.35;;;2.05;;
51907;SDS011;39320;53.214;6.556;2023-06-14T07:57:16;3.42;;;1.85;;
51907;SDS011;39320;53.214;6.556;2023-06-14T07:59:42;3.53;;;1.90;;
51907;SDS011;39320;53.214;6.556;2023-06-14T08:02:08;4.32;;;1.88;;
51907;SDS011;39320;53.214;6.556;2023-06-14T08:04:33;5.88;;;1.92;;
51907;SDS011;39320;53.214;6.556;2023-06-14T08:06:59;3.47;;;1.95;;
51907;SDS011;39320;53.214;6.556;2023-06-14T08:09:26;3.05;;;1.90;;
51907;SDS011;39320;53.214;6.556;2023-06-14T08:11:53;4.07;;;2.20;;
51907;SDS011;39320;53.214;6.556;2023-06-14T08:14:19;3.25;;;1.60;;
51907;SDS011;39320;53.214;6.556;2023-06-14T08:16:45;3.60;;;1.70;;
51907;SDS011;39320;53.214;6.556;2023-06-14T08:19:11;4.93;;;2.00;;
51907;SDS011;39320;53.214;6.556;2023-06-14T08:21:36;5.40;;;2.00;;
51907;SDS011;39320;53.214;6.556;2023-06-14T08:24:02;8.77;;;2.70;;
51907;SDS011;39320;53.214;6.556;2023-06-14T08:26:29;5.35;;;1.88;;
51907;SDS011;39320;53.214;6.556;2023-06-14T08:28:55;5.20;;;1.85;;
51907;SDS011;39320;53.214;6.556;2023-06-14T08:31:21;4.68;;;1.83;;
51907;SDS011;39320;53.214;6.556;2023-06-14T08:33:47;4.43;;;2.05;;
51907;SDS011;39320;53.214;6.556;2023-06-14T08:36:13;6.90;;;2.22;;
51907;SDS011;39320;53.214;6.556;2023-06-14T08:38:39;4.10;;;2.10;;
51907;SDS011;39320;53.214;6.556;2023-06-14T08:41:05;4.40;;;2.00;;
51907;SDS011;39320;53.214;6.556;2023-06-14T08:43:31;3.75;;;1.77;;
51907;SDS011;39320;53.214;6.556;2023-06-14T08:45:58;3.95;;;1.92;;
51907;SDS011;39320;53.214;6.556;2023-06-14T08:48:27;4.72;;;1.63;;
51907;SDS011;39320;53.214;6.556;2023-06-14T08:50:54;4.30;;;2.13;;
51907;SDS011;39320;53.214;6.556;2023-06-14T08:53:28;8.57;;;3.00;;
51907;SDS011;39320;53.214;6.556;2023-06-14T08:56:00;15.07;;;3.33;;
51907;SDS011;39320;53.214;6.556;2023-06-14T08:58:30;5.13;;;2.00;;
51907;SDS011;39320;53.214;6.556;2023-06-14T09:00:59;3.83;;;1.67;;
51907;SDS011;39320;53.214;6.556;2023-06-14T09:03:26;4.15;;;1.98;;
51907;SDS011;39320;53.214;6.556;2023-06-14T09:05:55;3.85;;;1.85;;
51907;SDS011;39320;53.214;6.556;2023-06-14T09:08:24;3.55;;;1.73;;
51907;SDS011;39320;53.214;6.556;2023-06-14T09:10:51;2.00;;;1.60;;
51907;SDS011;39320;53.214;6.556;2023-06-14T09:13:17;5.15;;;1.88;;
51907;SDS011;39320;53.214;6.556;2023-06-14T09:15:43;2.72;;;1.75;;
51907;SDS011;39320;53.214;6.556;2023-06-14T09:18:09;7.10;;;2.72;;
51907;SDS011;39320;53.214;6.556;2023-06-14T09:20:35;5.53;;;2.25;;
51907;SDS011;39320;53.214;6.556;2023-06-14T09:23:01;5.85;;;2.10;;
51907;SDS011;39320;53.214;6.556;2023-06-14T09:25:27;4.82;;;2.10;;
51907;SDS011;39320;53.214;6.556;2023-06-14T09:27:56;4.63;;;2.20;;
51907;SDS011;39320;53.214;6.556;2023-06-14T09:30:22;7.82;;;2.30;;
51907;SDS011;39320;53.214;6.556;2023-06-14T09:32:48;4.43;;;1.70;;
51907;SDS011;39320;53.214;6.556;2023-06-14T09:35:15;2.63;;;1.55;;
51907;SDS011;39320;53.214;6.556;2023-06-14T09:37:43;2.20;;;1.50;;
51907;SDS011;39320;53.214;6.556;2023-06-14T09:40:09;5.82;;;2.13;;
51907;SDS011;39320;53.214;6.556;2023-06-14T09:42:36;3.92;;;1.75;;
51907;SDS011;39320;53.214;6.556;2023-06-14T09:45:03;3.45;;;1.98;;
51907;SDS011;39320;53.214;6.556;2023-06-14T09:47:29;4.25;;;2.00;;
51907;SDS011;39320;53.214;6.556;2023-06-14T09:49:57;7.63;;;2.22;;
51907;SDS011;39320;53.214;6.556;2023-06-14T09:52:24;4.13;;;1.83;;
51907;SDS011;39320;53.214;6.556;2023-06-14T09:54:51;7.38;;;2.50;;
51907;SDS011;39320;53.214;6.556;2023-06-14T09:57:23;4.65;;;2.10;;
51907;SDS011;39320;53.214;6.556;2023-06-14T09:59:52;4.93;;;1.83;;
51907;SDS011;39320;53.214;6.556;2023-06-14T10:07:30;3.45;;;1.55;;
51907;SDS011;39320;53.214;6.556;2023-06-14T10:10:04;3.47;;;2.00;;
51907;SDS011;39320;53.214;6.556;2023-06-14T10:12:31;3.55;;;1.58;;
51907;SDS011;39320;53.214;6.556;2023-06-14T10:14:56;2.47;;;1.48;;
51907;SDS011;39320;53.214;6.556;2023-06-14T10:23:00;4.63;;;1.80;;
51907;SDS011;39320;53.214;6.556;2023-06-14T10:25:30;4.65;;;2.17;;
51907;SDS011;39320;53.214;6.556;2023-06-14T10:28:29;4.13;;;1.52;;
51907;SDS011;39320;53.214;6.556;2023-06-14T10:36:32;3.92;;;1.42;;
51907;SDS011;39320;53.214;6.556;2023-06-14T10:39:18;3.90;;;2.00;;
51907;SDS011;39320;53.214;6.556;2023-06-14T10:41:51;3.15;;;1.42;;
51907;SDS011;39320;53.214;6.556;2023-06-14T10:46:47;4.63;;;1.83;;
51907;SDS011;39320;53.214;6.556;2023-06-14T10:52:11;2.95;;;1.73;;
51907;SDS011;39320;53.214;6.556;2023-06-14T10:57:41;4.47;;;1.95;;
51907;SDS011;39320;53.214;6.556;2023-06-14T11:00:11;3.17;;;1.40;;
51907;SDS011;39320;53.214;6.556;2023-06-14T11:05:28;4.30;;;1.70;;
51907;SDS011;39320;53.214;6.556;2023-06-14T11:10:50;4.03;;;1.42;;
51907;SDS011;39320;53.214;6.556;2023-06-14T11:13:19;3.30;;;1.05;;
51907;SDS011;39320;53.214;6.556;2023-06-14T11:15:45;2.53;;;1.42;;
51907;SDS011;39320;53.214;6.556;2023-06-14T11:18:13;4.35;;;2.05;;
51907;SDS011;39320;53.214;6.556;2023-06-14T11:20:39;4.57;;;1.83;;
51907;SDS011;39320;53.214;6.556;2023-06-14T11:23:05;2.78;;;1.50;;
51907;SDS011;39320;53.214;6.556;2023-06-14T11:25:31;4.35;;;1.77;;
51907;SDS011;39320;53.214;6.556;2023-06-14T11:27:57;2.75;;;1.70;;
51907;SDS011;39320;53.214;6.556;2023-06-14T11:30:26;4.50;;;1.80;;
51907;SDS011;39320;53.214;6.556;2023-06-14T11:32:52;4.80;;;1.92;;
51907;SDS011;39320;53.214;6.556;2023-06-14T11:35:19;3.88;;;1.80;;
51907;SDS011;39320;53.214;6.556;2023-06-14T11:37:48;3.13;;;1.50;;
51907;SDS011;39320;53.214;6.556;2023-06-14T11:40:17;2.50;;;1.58;;
51907;SDS011;39320;53.214;6.556;2023-06-14T11:42:43;1.65;;;1.13;;
51907;SDS011;39320;53.214;6.556;2023-06-14T11:45:09;2.90;;;1.33;;
51907;SDS011;39320;53.214;6.556;2023-06-14T11:47:36;2.08;;;1.20;;
51907;SDS011;39320;53.214;6.556;2023-06-14T11:50:04;5.35;;;1.92;;
51907;SDS011;39320;53.214;6.556;2023-06-14T11:52:32;4.65;;;1.30;;
51907;SDS011;39320;53.214;6.556;2023-06-14T11:54:58;3.92;;;1.30;;
51907;SDS011;39320;53.214;6.556;2023-06-14T11:57:24;6.00;;;1.35;;
51907;SDS011;39320;53.214;6.556;2023-06-14T11:59:51;3.22;;;1.58;;
51907;SDS011;39320;53.214;6.556;2023-06-14T12:02:17;10.85;;;1.90;;
51907;SDS011;39320;53.214;6.556;2023-06-14T12:04:46;5.93;;;1.92;;
51907;SDS011;39320;53.214;6.556;2023-06-14T12:07:17;5.78;;;1.40;;
51907;SDS011;39320;53.214;6.556;2023-06-14T12:12:22;6.10;;;1.65;;
51907;SDS011;39320;53.214;6.556;2023-06-14T12:14:52;3.80;;;1.45;;
51907;SDS011;39320;53.214;6.556;2023-06-14T12:17:19;5.25;;;2.20;;
51907;SDS011;39320;53.214;6.556;2023-06-14T12:19:45;3.13;;;1.30;;
51907;SDS011;39320;53.214;6.556;2023-06-14T12:22:12;2.88;;;1.10;;
51907;SDS011;39320;53.214;6.556;2023-06-14T12:24:38;2.53;;;1.30;;
51907;SDS011;39320;53.214;6.556;2023-06-14T12:27:07;2.47;;;1.27;;
51907;SDS011;39320;53.214;6.556;2023-06-14T12:29:33;2.88;;;1.13;;
51907;SDS011;39320;53.214;6.556;2023-06-14T12:32:00;2.60;;;1.20;;
51907;SDS011;39320;53.214;6.556;2023-06-14T12:34:26;3.15;;;1.25;;
51907;SDS011;39320;53.214;6.556;2023-06-14T12:36:52;1.98;;;0.90;;
51907;SDS011;39320;53.214;6.556;2023-06-14T12:39:19;1.92;;;1.10;;
51907;SDS011;39320;53.214;6.556;2023-06-14T12:41:46;3.20;;;1.00;;
51907;SDS011;39320;53.214;6.556;2023-06-14T12:44:12;2.90;;;1.20;;
51907;SDS011;39320;53.214;6.556;2023-06-14T12:46:38;1.75;;;0.95;;
51907;SDS011;39320;53.214;6.556;2023-06-14T12:49:05;2.50;;;1.23;;
51907;SDS011;39320;53.214;6.556;2023-06-14T12:51:32;2.42;;;1.20;;
51907;SDS011;39320;53.214;6.556;2023-06-14T12:53:58;2.03;;;1.10;;
51907;SDS011;39320;53.214;6.556;2023-06-14T12:56:24;3.75;;;0.88;;
51907;SDS011;39320;53.214;6.556;2023-06-14T12:58:49;4.55;;;1.50;;
51907;SDS011;39320;53.214;6.556;2023-06-14T13:01:15;2.00;;;1.30;;
51907;SDS011;39320;53.214;6.556;2023-06-14T13:03:41;2.35;;;1.10;;
51907;SDS011;39320;53.214;6.556;2023-06-14T13:06:07;2.50;;;1.30;;
51907;SDS011;39320;53.214;6.556;2023-06-14T13:08:32;5.75;;;1.52;;
51907;SDS011;39320;53.214;6.556;2023-06-14T13:10:58;2.67;;;1.15;;
51907;SDS011;39320;53.214;6.556;2023-06-14T13:13:24;1.60;;;1.20;;
51907;SDS011;39320;53.214;6.556;2023-06-14T13:15:50;2.53;;;1.00;;
51907;SDS011;39320;53.214;6.556;2023-06-14T13:18:16;1.80;;;1.17;;
51907;SDS011;39320;53.214;6.556;2023-06-14T13:20:42;1.73;;;1.10;;
51907;SDS011;39320;53.214;6.556;2023-06-14T13:23:08;4.60;;;2.80;;
51907;SDS011;39320;53.214;6.556;2023-06-14T13:25:35;2.60;;;1.20;;
51907;SDS011;39320;53.214;6.556;2023-06-14T13:28:03;1.55;;;1.25;;
51907;SDS011;39320;53.214;6.556;2023-06-14T13:30:29;2.00;;;1.30;;
51907;SDS011;39320;53.214;6.556;2023-06-14T13:32:55;3.03;;;1.20;;
51907;SDS011;39320;53.214;6.556;2023-06-14T13:35:22;2.00;;;1.20;;
51907;SDS011;39320;53.214;6.556;2023-06-14T13:37:48;4.55;;;1.42;;
51907;SDS011;39320;53.214;6.556;2023-06-14T13:40:14;2.20;;;1.40;;
51907;SDS011;39320;53.214;6.556;2023-06-14T13:42:40;1.98;;;1.30;;
51907;SDS011;39320;53.214;6.556;2023-06-14T13:45:06;3.45;;;1.48;;
51907;SDS011;39320;53.214;6.556;2023-06-14T13:47:33;3.67;;;1.48;;
51907;SDS011;39320;53.214;6.556;2023-06-14T13:49:59;2.70;;;1.33;;
51907;SDS011;39320;53.214;6.556;2023-06-14T13:52:25;2.05;;;1.20;;
51907;SDS011;39320;53.214;6.556;2023-06-14T13:54:51;3.08;;;1.23;;
51907;SDS011;39320;53.214;6.556;2023-06-14T13:57:17;1.98;;;1.15;;
51907;SDS011;39320;53.214;6.556;2023-06-14T13:59:43;3.38;;;1.25;;
51907;SDS011;39320;53.214;6.556;2023-06-14T14:02:10;2.58;;;1.20;;
51907;SDS011;39320;53.214;6.556;2023-06-14T14:04:37;3.88;;;1.17;;
51907;SDS011;39320;53.214;6.556;2023-06-14T14:07:04;3.33;;;1.58;;
51907;SDS011;39320;53.214;6.556;2023-06-14T14:09:31;2.45;;;1.45;;
51907;SDS011;39320;53.214;6.556;2023-06-14T14:12:00;3.03;;;1.50;;
51907;SDS011;39320;53.214;6.556;2023-06-14T14:14:30;1.73;;;1.08;;
51907;SDS011;39320;53.214;6.556;2023-06-14T14:16:57;3.20;;;1.42;;
51907;SDS011;39320;53.214;6.556;2023-06-14T14:19:23;1.73;;;1.27;;
51907;SDS011;39320;53.214;6.556;2023-06-14T14:21:49;1.95;;;1.13;;
51907;SDS011;39320;53.214;6.556;2023-06-14T14:24:15;2.80;;;1.40;;
51907;SDS011;39320;53.214;6.556;2023-06-14T14:26:41;3.75;;;1.50;;
51907;SDS011;39320;53.214;6.556;2023-06-14T14:29:07;2.15;;;1.20;;
51907;SDS011;39320;53.214;6.556;2023-06-14T14:31:36;2.60;;;1.33;;
51907;SDS011;39320;53.214;6.556;2023-06-14T14:34:02;2.30;;;1.27;;
51907;SDS011;39320;53.214;6.556;2023-06-14T14:36:28;2.65;;;1.33;;
51907;SDS011;39320;53.214;6.556;2023-06-14T14:38:53;3.53;;;1.00;;
51907;SDS011;39320;53.214;6.556;2023-06-14T14:41:19;4.78;;;1.67;;
51907;SDS011;39320;53.214;6.556;2023-06-14T14:43:45;2.88;;;1.30;;
51907;SDS011;39320;53.214;6.556;2023-06-14T14:46:11;2.20;;;1.42;;
51907;SDS011;39320;53.214;6.556;2023-06-14T14:48:37;2.67;;;1.27;;
51907;SDS011;39320;53.214;6.556;2023-06-14T14:51:02;2.30;;;1.42;;
51907;SDS011;39320;53.214;6.556;2023-06-14T14:53:28;2.83;;;1.10;;
51907;SDS011;39320;53.214;6.556;2023-06-14T14:55:54;2.90;;;1.35;;
51907;SDS011;39320;53.214;6.556;2023-06-14T14:58:20;3.67;;;1.52;;
51907;SDS011;39320;53.214;6.556;2023-06-14T15:00:46;2.47;;;1.17;;
51907;SDS011;39320;53.214;6.556;2023-06-14T15:03:13;2.58;;;1.33;;
51907;SDS011;39320;53.214;6.556;2023-06-14T15:05:39;2.63;;;1.67;;
51907;SDS011;39320;53.214;6.556;2023-06-14T15:08:05;2.83;;;1.30;;
51907;SDS011;39320;53.214;6.556;2023-06-14T15:10:38;1.65;;;1.13;;
51907;SDS011;39320;53.214;6.556;2023-06-14T15:13:08;3.03;;;1.75;;
51907;SDS011;39320;53.214;6.556;2023-06-14T15:15:34;2.85;;;1.23;;
51907;SDS011;39320;53.214;6.556;2023-06-14T15:18:00;2.47;;;1.40;;
51907;SDS011;39320;53.214;6.556;2023-06-14T15:20:26;2.65;;;1.27;;
51907;SDS011;39320;53.214;6.556;2023-06-14T15:22:53;3.13;;;1.40;;
51907;SDS011;39320;53.214;6.556;2023-06-14T15:25:24;4.38;;;1.55;;